Time;durP1;ratioP1;P1;durP2;ratioP2;P2;SDS_P1;SDS_P2;PMS_P1;PMS_P2;Temp;Humidity;BMP_temperature;BMP_pressure;BME280_temperature;BME280_humidity;BME280_pressure;Samples;Min_cycle;Max_cycle;Signal;HPM_P1;HPM_P2
2023/07/25 00:03:32;;;;;;;1.80;1.30;;;;;;;16.20;64.27;99526.75;20550567;28;20202;-84
2023/07/25 00:13:35;;;;;;;6.72;1.70;;;;;;;16.26;62.96;99531.66;20560342;28;20222;-85
2023/07/25 00:23:38;;;;;;;3.67;1.60;;;;;;;16.38;65.01;99544.78;20561819;28;20191;-84
2023/07/25 00:33:40;;;;;;;4.53;1.50;;;;;;;16.40;64.04;99551.72;20560220;28;20503;-84
2023/07/25 00:43:43;;;;;;;4.93;1.47;;;;;;;16.42;64.02;99557.84;20557419;28;20195;-83
2023/07/25 00:53:45;;;;;;;5.30;1.88;;;;;;;16.12;64.91;99559.88;20553316;28;20231;-85
2023/07/25 01:03:48;;;;;;;3.97;1.73;;;;;;;16.61;63.45;99553.22;20535929;28;20261;-83
2023/07/25 01:13:51;;;;;;;3.53;1.70;;;;;;;16.41;64.68;99559.03;20546018;28;20211;-81
2023/07/25 01:24:00;;;;;;;6.32;2.08;;;;;;;16.60;63.09;99548.75;20553320;28;20198;-81
2023/07/25 01:34:03;;;;;;;3.10;1.83;;;;;;;15.95;64.71;99543.44;20560775;28;20210;-83
2023/07/25 01:44:06;;;;;;;8.55;2.58;;;;;;;16.57;61.57;99530.44;20537853;28;20203;-85
2023/07/25 01:54:08;;;;;;;7.55;2.38;;;;;;;15.82;63.56;99517.34;20534799;28;20234;-85
2023/07/25 02:04:11;;;;;;;6.17;2.37;;;;;;;16.01;61.11;99505.00;20551083;28;20194;-84
2023/07/25 02:14:15;;;;;;;5.03;1.52;;;;;;;16.37;60.67;99507.06;20543092;28;20211;-84
2023/07/25 02:24:18;;;;;;;6.97;2.00;;;;;;;15.83;61.75;99495.47;20520963;28;20266;-85
2023/07/25 02:34:21;;;;;;;4.70;2.10;;;;;;;15.68;62.74;99489.56;20501790;28;20250;-85
2023/07/25 02:44:23;;;;;;;4.23;2.47;;;;;;;16.17;62.33;99494.25;20506170;28;20195;-84
2023/07/25 02:54:26;;;;;;;5.05;1.95;;;;;;;15.60;64.09;99492.66;20566050;28;20697;-84
2023/07/25 03:04:28;;;;;;;7.77;2.50;;;;;;;15.74;63.08;99493.69;20568742;28;20276;-83
2023/07/25 03:14:31;;;;;;;6.87;2.17;;;;;;;15.43;64.49;99482.72;20501946;28;20210;-80
2023/07/25 03:24:36;;;;;;;6.75;2.50;;;;;;;15.42;65.43;99498.09;20590579;28;20194;-82
2023/07/25 03:34:40;;;;;;;11.20;3.23;;;;;;;15.65;63.54;99500.84;20563711;28;20230;-83
2023/07/25 03:44:43;;;;;;;3.45;2.35;;;;;;;15.37;63.34;99512.56;20557974;28;20199;-80
2023/07/25 03:54:46;;;;;;;6.00;2.67;;;;;;;15.15;64.56;99510.59;20561634;28;20230;-81
2023/07/25 04:04:48;;;;;;;7.20;3.00;;;;;;;15.32;63.21;99496.72;20549200;28;20576;-81
2023/07/25 04:14:51;;;;;;;7.20;3.10;;;;;;;14.93;64.12;99487.56;20564380;28;20214;-81
2023/07/25 04:24:54;;;;;;;7.07;3.10;;;;;;;15.19;62.99;99480.31;20567363;28;20253;-82
2023/07/25 04:34:56;;;;;;;5.40;3.50;;;;;;;15.50;62.63;99481.97;20568542;28;20221;-82
2023/07/25 04:45:02;;;;;;;5.37;3.10;;;;;;;15.76;61.85;99491.31;20628876;28;20216;-81
2023/07/25 04:55:06;;;;;;;5.43;3.27;;;;;;;15.48;62.18;99484.38;20541317;28;20242;-84
2023/07/25 05:05:09;;;;;;;12.73;4.40;;;;;;;15.44;62.99;99492.84;20522322;28;20191;-82
2023/07/25 05:15:11;;;;;;;13.27;4.45;;;;;;;15.51;62.54;99494.97;20538253;28;20285;-85
2023/07/25 05:25:14;;;;;;;16.10;4.55;;;;;;;15.31;62.77;99502.78;20561772;28;20607;-85
2023/07/25 05:35:17;;;;;;;8.90;4.13;;;;;;;15.43;59.40;99511.06;20550912;28;20238;-84
2023/07/25 05:45:19;;;;;;;7.67;3.50;;;;;;;14.82;60.85;99520.53;20541014;28;20257;-83
2023/07/25 05:55:22;;;;;;;5.60;2.73;;;;;;;14.98;60.13;99500.56;20567573;28;20238;-81
2023/07/25 06:05:25;;;;;;;7.87;2.53;;;;;;;15.82;57.46;99513.69;20558333;28;20245;-82
2023/07/25 06:15:29;;;;;;;6.50;2.60;;;;;;;15.94;57.69;99522.75;20529613;28;20288;-85
2023/07/25 06:25:32;;;;;;;9.93;2.03;;;;;;;15.67;55.34;99513.44;20541987;28;20269;-83
2023/07/25 06:35:34;;;;;;;5.13;1.55;;;;;;;16.56;55.32;99516.63;20556281;28;20222;-83
2023/07/25 06:45:37;;;;;;;6.28;1.58;;;;;;;16.35;55.47;99534.22;20556487;28;20211;-83
2023/07/25 06:55:40;;;;;;;3.53;1.63;;;;;;;16.27;54.13;99533.31;20533833;28;20277;-83
2023/07/25 07:05:51;;;;;;;6.07;1.83;;;;;;;16.10;53.79;99550.94;20539889;28;20344;-83
2023/07/25 07:15:54;;;;;;;7.50;1.70;;;;;;;16.11;53.66;99546.88;20549931;28;20222;-82
2023/07/25 07:25:57;;;;;;;5.78;1.58;;;;;;;16.41;51.91;99538.34;20543621;28;20202;-81
2023/07/25 07:35:59;;;;;;;6.03;1.30;;;;;;;16.75;53.25;99539.16;20564530;28;20273;-81
2023/07/25 07:46:02;;;;;;;3.92;1.27;;;;;;;16.43;50.46;99542.44;20553046;28;20199;-82
2023/07/25 07:56:05;;;;;;;2.28;1.10;;;;;;;16.36;49.05;99547.22;20566984;28;20277;-82
2023/07/25 08:06:09;;;;;;;6.40;1.20;;;;;;;17.21;48.33;99548.13;20551733;28;20639;-81
2023/07/25 08:16:11;;;;;;;5.95;0.98;;;;;;;16.73;48.90;99564.31;20534714;28;20288;-82
2023/07/25 08:26:14;;;;;;;5.45;1.17;;;;;;;17.26;45.48;99555.50;20532589;28;20190;-81
2023/07/25 08:36:17;;;;;;;4.80;0.90;;;;;;;17.66;46.66;99546.06;20548011;28;20241;-82
2023/07/25 08:46:20;;;;;;;3.63;1.23;;;;;;;17.46;47.42;99556.88;20546957;28;20195;-80
2023/07/25 08:56:23;;;;;;;4.85;1.00;;;;;;;17.71;44.89;99552.19;20546186;28;20231;-83
2023/07/25 09:06:28;;;;;;;5.15;1.40;;;;;;;18.07;45.15;99555.25;20546042;28;20717;-83
2023/07/25 09:16:32;;;;;;;5.05;1.02;;;;;;;17.95;44.24;99558.44;20529377;28;20531;-81
2023/07/25 09:26:37;;;;;;;6.10;1.15;;;;;;;17.45;45.40;99569.47;20544550;28;20245;-81
2023/07/25 09:36:39;;;;;;;4.95;0.93;;;;;;;17.63;47.55;99558.22;20542488;28;20500;-82
2023/07/25 09:46:50;;;;;;;5.00;1.00;;;;;;;17.55;46.34;99558.16;20527305;28;20191;-84
2023/07/25 09:56:53;;;;;;;3.42;0.65;;;;;;;18.50;43.29;99556.28;20542590;28;20222;-82
2023/07/25 10:06:59;;;;;;;2.15;1.00;;;;;;;17.88;42.47;99562.88;20557567;28;20535;-81
2023/07/25 10:17:02;;;;;;;1.97;0.70;;;;;;;17.95;42.02;99552.75;20556603;28;20210;-84
2023/07/25 10:27:09;;;;;;;3.75;0.68;;;;;;;19.59;40.03;99546.28;20555822;28;20195;-84
2023/07/25 10:37:22;;;;;;;1.13;0.68;;;;;;;18.39;42.96;99544.84;20540235;28;20214;-85
2023/07/25 10:47:48;;;;;;;3.67;1.08;;;;;;;18.07;43.04;99543.88;20541718;28;20268;-81
2023/07/25 10:58:07;;;;;;;3.20;0.70;;;;;;;17.77;46.28;99553.47;20555203;28;20241;-84
2023/07/25 11:08:10;;;;;;;3.00;0.70;;;;;;;17.30;49.42;99560.00;20570737;28;20479;-82
2023/07/25 11:18:13;;;;;;;4.47;1.20;;;;;;;16.82;53.84;99565.63;20554005;28;20206;-82
2023/07/25 11:28:15;;;;;;;8.30;1.73;;;;;;;17.43;54.11;99566.19;20553565;28;20234;-82
2023/07/25 11:38:18;;;;;;;2.88;1.13;;;;;;;17.26;51.78;99581.09;20551761;28;20273;-82
2023/07/25 11:48:21;;;;;;;4.22;1.05;;;;;;;17.98;49.21;99575.56;20551067;28;20331;-81
2023/07/25 11:58:23;;;;;;;3.35;1.08;;;;;;;16.71;49.14;99586.59;20550513;28;20269;-81
2023/07/25 12:08:39;;;;;;;4.67;1.03;;;;;;;16.71;48.81;99580.91;20576353;28;20265;-81
2023/07/25 12:18:42;;;;;;;6.60;1.20;;;;;;;17.29;48.57;99578.25;20550969;28;20445;-80
2023/07/25 12:28:45;;;;;;;2.75;1.10;;;;;;;16.93;47.81;99584.78;20549081;28;20290;-83
2023/07/25 12:38:47;;;;;;;6.03;1.38;;;;;;;18.45;45.20;99587.97;20531981;28;20281;-81
2023/07/25 12:48:50;;;;;;;1.90;0.80;;;;;;;18.66;44.04;99590.16;20546229;28;20595;-82
2023/07/25 12:58:54;;;;;;;4.15;1.00;;;;;;;18.41;42.49;99588.00;20527011;28;20230;-81
2023/07/25 13:08:57;;;;;;;4.38;0.60;;;;;;;18.50;39.57;99585.56;20473688;28;20214;-82
2023/07/25 13:19:00;;;;;;;2.30;0.63;;;;;;;18.83;37.94;99584.50;20464191;28;20458;-82
2023/07/25 13:29:04;;;;;;;2.90;0.50;;;;;;;19.02;38.26;99580.47;20499581;28;20258;-82
2023/07/25 13:39:07;;;;;;;1.77;0.40;;;;;;;18.22;40.56;99588.28;20490085;28;20246;-81
2023/07/25 13:49:09;;;;;;;2.33;0.28;;;;;;;18.62;40.28;99608.03;20446818;28;20497;-80
2023/07/25 13:59:12;;;;;;;3.45;0.30;;;;;;;17.24;40.90;99632.66;20479114;28;20277;-81
2023/07/25 14:09:15;;;;;;;0.82;0.30;;;;;;;16.67;42.74;99631.19;20467268;28;20195;-82
2023/07/25 14:19:18;;;;;;;1.33;0.35;;;;;;;17.42;41.40;99630.78;20523243;28;20227;-86
2023/07/25 14:29:20;;;;;;;2.03;0.40;;;;;;;17.62;40.09;99642.75;20507132;28;20199;-83
2023/07/25 14:39:23;;;;;;;1.00;0.40;;;;;;;17.43;40.26;99637.31;20486763;28;20250;-84
2023/07/25 14:49:26;;;;;;;2.63;0.57;;;;;;;18.77;38.59;99645.97;20466013;28;20219;-82
2023/07/25 14:59:29;;;;;;;1.75;0.60;;;;;;;19.52;37.84;99641.25;20519793;28;20536;-84
2023/07/25 15:09:31;;;;;;;1.98;0.38;;;;;;;19.39;37.39;99639.22;20541626;28;20215;-82
2023/07/25 15:19:34;;;;;;;1.00;0.20;;;;;;;18.82;37.91;99641.91;20548828;28;20279;-83
2023/07/25 15:29:37;;;;;;;2.22;0.43;;;;;;;18.15;39.01;99642.38;20561905;28;20194;-80
2023/07/25 15:39:40;;;;;;;2.05;0.40;;;;;;;19.11;37.08;99631.38;20572959;28;20226;-83
2023/07/25 15:49:42;;;;;;;1.77;0.30;;;;;;;19.20;36.34;99635.50;20565782;28;20635;-82
2023/07/25 15:59:46;;;;;;;0.40;0.28;;;;;;;19.13;34.53;99629.78;20550143;28;20226;-84
2023/07/25 16:09:49;;;;;;;0.63;0.15;;;;;;;18.22;33.33;99636.72;20571548;28;20245;-80
2023/07/25 16:20:17;;;;;;;2.65;0.20;;;;;;;18.69;33.27;99638.63;20592557;28;20226;-81
2023/07/25 16:30:23;;;;;;;0.98;0.30;;;;;;;18.13;34.93;99639.09;20561544;28;20600;-84
2023/07/25 16:40:31;;;;;;;2.17;0.20;;;;;;;18.90;34.61;99647.22;20552839;28;20280;-85
2023/07/25 16:50:34;;;;;;;1.38;0.22;;;;;;;19.08;34.52;99658.69;20576976;28;20312;-83
2023/07/25 17:00:37;;;;;;;3.58;0.50;;;;;;;19.18;35.40;99668.50;20555376;28;20222;-82
2023/07/25 17:10:43;;;;;;;0.70;0.22;;;;;;;18.09;37.07;99681.78;20551502;28;20374;-82
2023/07/25 17:20:46;;;;;;;1.52;0.40;;;;;;;18.74;37.04;99702.94;20547067;28;20222;-82
2023/07/25 17:30:49;;;;;;;0.25;0.10;;;;;;;17.95;37.51;99704.44;20568700;28;20191;-84
2023/07/25 17:40:54;;;;;;;1.50;0.20;;;;;;;18.22;36.54;99720.13;20540182;28;20218;-84
2023/07/25 17:50:57;;;;;;;0.85;0.10;;;;;;;18.54;35.20;99731.72;20543276;28;20311;-83
2023/07/25 18:01:00;;;;;;;1.45;0.10;;;;;;;18.27;36.38;99748.25;20555247;28;20214;-80
2023/07/25 18:11:04;;;;;;;2.03;0.10;;;;;;;17.91;37.79;99758.50;20563669;28;20194;-83
2023/07/25 18:21:08;;;;;;;0.68;0.15;;;;;;;17.61;37.78;99760.63;20560567;28;20297;-84
2023/07/25 18:31:12;;;;;;;2.20;0.20;;;;;;;18.22;38.19;99768.53;20563710;28;20195;-81
2023/07/25 18:41:15;;;;;;;2.83;0.75;;;;;;;17.75;41.57;99772.16;20544275;28;20218;-87
2023/07/25 18:51:18;;;;;;;1.92;0.20;;;;;;;18.40;39.81;99791.47;20561412;28;20238;-87
2023/07/25 19:01:21;;;;;;;3.10;0.40;;;;;;;18.32;40.30;99801.16;20552573;28;20277;-84
2023/07/25 19:11:24;;;;;;;1.52;0.30;;;;;;;18.17;42.92;99822.22;20533744;28;21058;-82
2023/07/25 19:21:28;;;;;;;1.08;0.20;;;;;;;17.33;42.71;99837.09;20544007;28;20226;-82
2023/07/25 19:31:30;;;;;;;1.13;0.20;;;;;;;17.25;44.92;99849.59;20554312;28;20211;-82
2023/07/25 19:41:35;;;;;;;0.35;0.20;;;;;;;17.15;42.74;99863.25;20542456;28;20733;-84
2023/07/25 19:51:37;;;;;;;0.70;0.38;;;;;;;17.05;41.72;99883.00;20517344;28;20237;-82
2023/07/25 20:01:40;;;;;;;4.28;0.40;;;;;;;17.07;41.09;99898.47;20521143;28;20674;-84
2023/07/25 20:11:43;;;;;;;1.00;0.20;;;;;;;17.07;41.11;99911.88;20513689;28;20227;-85
2023/07/25 20:21:47;;;;;;;0.30;0.20;;;;;;;16.67;40.29;99913.28;20524171;28;20254;-84
2023/07/25 20:31:49;;;;;;;2.13;0.35;;;;;;;16.52;40.38;99923.56;20543909;28;20199;-83
2023/07/25 20:41:52;;;;;;;1.23;0.55;;;;;;;15.83;43.15;99943.72;20545064;28;20289;-85
2023/07/25 20:51:55;;;;;;;1.33;0.20;;;;;;;15.86;42.14;99948.63;20560063;28;20766;-82
2023/07/25 21:01:58;;;;;;;2.10;0.60;;;;;;;15.90;41.84;99958.88;20550458;28;20284;-84
2023/07/25 21:12:01;;;;;;;1.33;0.60;;;;;;;15.65;43.14;99961.16;20551482;28;20261;-84
2023/07/25 21:22:04;;;;;;;2.42;0.70;;;;;;;15.26;46.18;99970.78;20552773;28;20219;-83
2023/07/25 21:32:07;;;;;;;1.57;0.50;;;;;;;15.15;46.13;99970.56;20540191;28;20191;-84
2023/07/25 21:42:10;;;;;;;1.17;0.50;;;;;;;15.00;47.11;99994.06;20555965;28;20754;-82
2023/07/25 21:52:13;;;;;;;2.23;0.60;;;;;;;15.00;47.72;100003.38;20549332;28;20284;-82
2023/07/25 22:02:20;;;;;;;1.90;0.60;;;;;;;14.91;47.85;100008.41;20558499;28;20651;-83
2023/07/25 22:12:25;;;;;;;2.05;0.73;;;;;;;14.80;48.19;100015.81;20532193;28;20971;-81
2023/07/25 22:22:28;;;;;;;2.13;0.70;;;;;;;14.38;50.64;100019.13;20543509;28;20621;-82
2023/07/25 22:32:31;;;;;;;3.73;0.70;;;;;;;14.64;49.46;100023.47;20535823;28;20230;-81
2023/07/25 22:42:34;;;;;;;2.07;0.77;;;;;;;14.52;48.73;100029.22;20570019;28;20217;-81
2023/07/25 22:52:36;;;;;;;0.97;0.63;;;;;;;14.58;49.92;100024.91;20577391;28;20287;-81
2023/07/25 23:02:39;;;;;;;1.63;0.70;;;;;;;14.70;48.52;100031.31;20579548;28;20264;-82
2023/07/25 23:12:42;;;;;;;1.60;0.55;;;;;;;14.82;50.51;100030.41;20602310;28;20463;-81
2023/07/25 23:22:45;;;;;;;0.77;0.60;;;;;;;14.91;48.22;100025.41;20566662;28;20226;-82
2023/07/25 23:32:48;;;;;;;3.10;0.90;;;;;;;14.35;50.30;100034.00;20584416;28;20222;-82
2023/07/25 23:42:50;;;;;;;3.60;0.80;;;;;;;14.56;49.50;100027.28;20583379;28;20226;-81
2023/07/25 23:52:53;;;;;;;2.63;1.00;;;;;;;15.13;48.56;100037.28;20596149;28;20476;-82
